createdAt,value
2019-05-26T00:01:09.135Z,7.03
2019-05-26T00:03:37.577Z,6.22
2019-05-26T00:06:05.996Z,6.85
2019-05-26T00:08:34.441Z,6.65
2019-05-26T00:11:02.892Z,6.25
2019-05-26T00:13:31.321Z,6.62
2019-05-26T00:15:59.763Z,5.80
2019-05-26T00:18:28.200Z,6.72
2019-05-26T00:20:56.654Z,5.85
2019-05-26T00:23:25.072Z,6.50
2019-05-26T00:25:53.534Z,6.35
2019-05-26T00:28:22.010Z,5.95
2019-05-26T00:30:50.378Z,6.12
2019-05-26T00:33:18.822Z,6.65
2019-05-26T00:35:47.272Z,6.70
2019-05-26T00:38:15.696Z,7.28
2019-05-26T00:40:44.193Z,7.15
2019-05-26T00:43:12.622Z,7.30
2019-05-26T00:45:41.047Z,7.78
2019-05-26T00:48:09.484Z,8.05
2019-05-26T00:50:37.925Z,7.50
2019-05-26T00:53:06.430Z,7.50
2019-05-26T00:55:34.866Z,8.08
2019-05-26T00:58:03.362Z,8.68
2019-05-26T01:00:40.326Z,8.15
2019-05-26T01:03:09.596Z,8.35
2019-05-26T01:05:38.128Z,7.85
2019-05-26T01:08:08.258Z,7.70
2019-05-26T01:10:37.017Z,7.60
2019-05-26T01:13:06.789Z,7.95
2019-05-26T01:15:35.217Z,8.45
2019-05-26T01:18:04.115Z,7.95
2019-05-26T01:20:32.540Z,8.25
2019-05-26T01:23:00.966Z,9.00
2019-05-26T01:25:29.402Z,9.70
2019-05-26T01:27:57.825Z,9.18
2019-05-26T01:30:37.118Z,8.95
2019-05-26T01:33:06.533Z,9.45
2019-05-26T01:35:38.333Z,8.73
2019-05-26T01:38:22.417Z,10.28
2019-05-26T01:40:44.995Z,9.00
2019-05-26T01:43:13.863Z,9.25
2019-05-26T01:45:42.295Z,10.23
2019-05-26T01:48:10.734Z,9.48
2019-05-26T01:50:39.239Z,9.45
2019-05-26T01:53:07.838Z,9.83
2019-05-26T01:55:36.291Z,9.65
2019-05-26T01:58:05.037Z,8.95
2019-05-26T02:00:33.817Z,10.70
2019-05-26T02:03:02.253Z,8.60
2019-05-26T02:05:30.704Z,9.65
2019-05-26T02:07:59.192Z,8.80
2019-05-26T02:10:27.629Z,8.95
2019-05-26T02:12:56.048Z,8.45
2019-05-26T02:15:25.444Z,8.03
2019-05-26T02:17:53.860Z,8.20
2019-05-26T02:20:22.730Z,8.80
2019-05-26T02:22:51.196Z,7.47
2019-05-26T02:25:21.746Z,8.73
2019-05-26T02:27:50.194Z,7.67
2019-05-26T02:30:20.870Z,8.65
2019-05-26T02:32:49.337Z,8.10
2019-05-26T02:35:19.185Z,8.65
2019-05-26T02:37:47.619Z,8.08
2019-05-26T02:40:17.393Z,7.85
2019-05-26T02:42:45.833Z,7.87
2019-05-26T02:45:19.373Z,8.30
2019-05-26T02:47:47.827Z,8.20
2019-05-26T02:50:17.587Z,8.28
2019-05-26T02:52:46.116Z,8.45
2019-05-26T02:55:16.545Z,8.68
2019-05-26T02:57:45.015Z,8.63
2019-05-26T03:00:14.875Z,9.03
2019-05-26T03:02:43.879Z,9.73
2019-05-26T03:05:13.278Z,9.05
2019-05-26T03:07:43.866Z,8.70
2019-05-26T03:12:46.096Z,8.43
2019-05-26T03:15:16.178Z,8.85
2019-05-26T03:17:46.097Z,8.78
2019-05-26T03:20:15.680Z,8.45
2019-05-26T03:22:45.706Z,9.17
2019-05-26T03:25:14.313Z,9.63
2019-05-26T03:27:42.755Z,9.95
2019-05-26T03:30:11.674Z,9.93
2019-05-26T03:32:40.115Z,10.50
2019-05-26T03:35:09.121Z,11.45
2019-05-26T03:37:37.566Z,10.90
2019-05-26T03:40:08.498Z,10.60
2019-05-26T03:42:36.950Z,11.05
2019-05-26T03:45:06.914Z,10.85
2019-05-26T03:50:03.574Z,10.82
2019-05-26T03:52:32.010Z,11.30
2019-05-26T03:55:00.604Z,11.70
2019-05-26T03:57:29.049Z,11.73
2019-05-26T03:59:57.488Z,11.63
2019-05-26T04:02:25.929Z,11.83
2019-05-26T04:04:54.420Z,12.30
2019-05-26T04:07:22.895Z,11.95
2019-05-26T04:10:03.748Z,11.85
2019-05-26T04:14:49.125Z,12.18
2019-05-26T04:17:17.557Z,12.40
2019-05-26T04:19:45.992Z,12.82
2019-05-26T04:22:14.419Z,12.55
2019-05-26T04:24:43.446Z,12.25
2019-05-26T04:27:11.871Z,11.88
2019-05-26T04:29:40.302Z,12.10
2019-05-26T04:32:08.739Z,11.00
2019-05-26T04:34:37.191Z,11.60
2019-05-26T04:37:05.648Z,11.25
2019-05-26T04:39:34.071Z,12.30
2019-05-26T04:42:02.553Z,11.15
2019-05-26T04:44:30.961Z,11.05
2019-05-26T04:46:59.394Z,11.65
2019-05-26T04:49:27.825Z,11.30
2019-05-26T04:51:56.258Z,10.60
2019-05-26T04:54:24.690Z,11.48
2019-05-26T04:56:53.122Z,11.40
2019-05-26T04:59:21.556Z,11.73
2019-05-26T05:01:49.990Z,10.93
2019-05-26T05:04:18.424Z,10.70
2019-05-26T05:06:46.885Z,10.65
2019-05-26T05:09:15.306Z,9.90
2019-05-26T05:11:43.736Z,10.30
2019-05-26T05:14:12.170Z,9.85
2019-05-26T05:16:40.679Z,10.63
2019-05-26T05:19:09.122Z,10.63
2019-05-26T05:21:37.567Z,10.87
2019-05-26T05:24:06.022Z,10.30
2019-05-26T05:26:34.445Z,9.90
2019-05-26T05:29:02.864Z,9.93
2019-05-26T05:31:31.298Z,9.67
2019-05-26T05:33:59.742Z,10.25
2019-05-26T05:36:28.183Z,8.85
2019-05-26T05:38:56.603Z,9.30
2019-05-26T05:41:25.136Z,9.50
2019-05-26T05:43:53.566Z,10.10
2019-05-26T05:46:22.003Z,9.63
2019-05-26T05:48:50.433Z,9.88
2019-05-26T05:51:18.876Z,9.18
2019-05-26T05:53:47.298Z,9.55
2019-05-26T05:56:15.720Z,10.00
2019-05-26T05:58:44.170Z,10.10
2019-05-26T06:01:12.622Z,9.38
2019-05-26T06:03:41.077Z,9.45
2019-05-26T06:06:09.507Z,9.98
2019-05-26T06:08:37.959Z,10.82
2019-05-26T06:11:16.172Z,9.25
2019-05-26T06:13:36.633Z,10.43
2019-05-26T06:16:05.144Z,9.38
2019-05-26T06:18:33.570Z,9.75
2019-05-26T06:21:01.997Z,9.75
2019-05-26T06:23:31.192Z,9.65
2019-05-26T06:25:59.625Z,10.25
2019-05-26T06:28:28.047Z,9.98
2019-05-26T06:30:56.629Z,10.23
2019-05-26T06:33:25.047Z,9.18
2019-05-26T06:35:53.498Z,9.63
2019-05-26T06:38:21.929Z,9.95
2019-05-26T06:40:50.356Z,10.08
2019-05-26T06:43:18.809Z,11.00
2019-05-26T06:45:47.228Z,10.32
2019-05-26T06:48:15.665Z,10.98
2019-05-26T06:50:44.086Z,10.45
2019-05-26T06:53:12.527Z,10.23
2019-05-26T06:55:40.972Z,10.32
2019-05-26T06:58:09.409Z,10.78
2019-05-26T07:00:37.844Z,10.05
2019-05-26T07:03:06.308Z,10.13
2019-05-26T07:05:34.743Z,10.08
2019-05-26T07:08:03.234Z,10.28
2019-05-26T07:10:31.638Z,10.90
2019-05-26T07:13:00.084Z,11.00
2019-05-26T07:15:28.508Z,11.08
2019-05-26T07:17:57.217Z,11.55
2019-05-26T07:20:25.850Z,11.00
2019-05-26T07:22:54.306Z,10.60
2019-05-26T07:25:22.752Z,10.68
2019-05-26T07:27:51.186Z,10.75
2019-05-26T07:30:23.420Z,10.70
2019-05-26T07:32:50.258Z,11.15
2019-05-26T07:35:18.776Z,11.00
2019-05-26T07:37:47.201Z,11.93
2019-05-26T07:40:15.981Z,11.53
2019-05-26T07:42:44.412Z,11.50
2019-05-26T07:45:14.153Z,12.80
2019-05-26T07:47:42.586Z,11.65
2019-05-26T07:50:12.431Z,11.57
2019-05-26T07:52:40.996Z,11.93
2019-05-26T07:55:11.276Z,11.50
2019-05-26T07:57:39.700Z,11.43
2019-05-26T08:00:08.978Z,11.33
2019-05-26T08:02:37.408Z,10.53
2019-05-26T08:05:07.762Z,11.03
2019-05-26T08:07:36.718Z,11.12
2019-05-26T08:10:09.562Z,11.40
2019-05-26T08:12:38.010Z,11.45
2019-05-26T08:15:07.098Z,10.98
2019-05-26T08:17:35.594Z,10.80
2019-05-26T08:20:06.386Z,11.90
2019-05-26T08:22:34.833Z,12.60
2019-05-26T08:25:04.698Z,11.50
2019-05-26T08:27:33.162Z,11.75
2019-05-26T08:30:01.644Z,12.00
2019-05-26T08:32:30.084Z,12.10
2019-05-26T08:34:58.543Z,12.70
2019-05-26T08:37:26.991Z,13.22
2019-05-26T08:39:57.060Z,11.73
2019-05-26T08:42:28.943Z,12.68
2019-05-26T08:44:55.651Z,12.28
2019-05-26T08:47:24.098Z,12.65
2019-05-26T08:49:52.535Z,11.83
2019-05-26T08:52:20.991Z,12.68
2019-05-26T08:54:49.444Z,12.05
2019-05-26T08:57:17.872Z,12.98
2019-05-26T08:59:46.485Z,12.88
2019-05-26T09:02:14.934Z,13.38
2019-05-26T09:04:43.377Z,13.38
2019-05-26T09:07:11.803Z,13.30
2019-05-26T09:09:40.402Z,13.18
2019-05-26T09:12:08.810Z,14.03
2019-05-26T09:14:37.242Z,14.07
2019-05-26T09:17:05.953Z,13.70
2019-05-26T09:19:34.382Z,15.90
2019-05-26T09:22:02.974Z,15.08
2019-05-26T09:24:31.407Z,14.65
2019-05-26T09:26:59.847Z,14.25
2019-05-26T09:29:28.295Z,14.45
2019-05-26T09:31:56.742Z,14.58
2019-05-26T09:34:25.306Z,15.18
2019-05-26T09:36:56.877Z,16.05
2019-05-26T09:39:23.889Z,14.83
2019-05-26T09:41:52.363Z,14.85
2019-05-26T09:44:20.792Z,15.28
2019-05-26T09:46:49.259Z,15.90
2019-05-26T09:49:17.751Z,14.73
2019-05-26T09:51:46.206Z,15.53
2019-05-26T09:54:14.700Z,15.25
2019-05-26T09:56:43.143Z,15.53
2019-05-26T09:59:11.698Z,15.98
2019-05-26T10:01:40.191Z,15.70
2019-05-26T10:04:08.621Z,16.87
2019-05-26T10:06:37.070Z,17.03
2019-05-26T10:09:08.558Z,18.05
2019-05-26T10:11:37.121Z,17.50
2019-05-26T10:14:05.992Z,17.55
2019-05-26T10:16:34.447Z,17.60
2019-05-26T10:19:02.918Z,19.12
2019-05-26T10:21:31.388Z,18.43
2019-05-26T10:23:59.883Z,19.52
2019-05-26T10:26:28.275Z,18.25
2019-05-26T10:29:00.236Z,18.85
2019-05-26T10:31:26.889Z,19.57
2019-05-26T10:33:55.313Z,17.98
2019-05-26T10:36:24.125Z,18.17
2019-05-26T10:38:52.545Z,18.98
2019-05-26T10:41:20.974Z,20.02
2019-05-26T10:43:49.463Z,19.77
2019-05-26T10:46:18.513Z,18.96
2019-05-26T10:48:46.936Z,20.75
2019-05-26T10:51:15.362Z,20.80
2019-05-26T10:53:43.812Z,22.80
2019-05-26T10:56:12.235Z,22.95
2019-05-26T10:58:40.672Z,25.45
2019-05-26T11:01:09.107Z,25.12
2019-05-26T11:03:37.614Z,26.85
2019-05-26T11:06:06.044Z,28.00
2019-05-26T11:08:34.474Z,28.32
2019-05-26T11:11:02.902Z,27.62
2019-05-26T11:13:31.343Z,28.90
2019-05-26T11:15:59.797Z,29.60
2019-05-26T11:18:28.247Z,28.35
2019-05-26T11:20:56.656Z,29.02
2019-05-26T11:23:25.102Z,28.73
2019-05-26T11:25:53.529Z,27.65
2019-05-26T11:28:22.046Z,28.12
2019-05-26T11:30:50.477Z,27.25
2019-05-26T11:33:18.977Z,27.65
2019-05-26T11:35:47.447Z,26.62
2019-05-26T11:38:15.887Z,27.65
2019-05-26T11:40:44.334Z,27.15
2019-05-26T11:43:16.793Z,26.40
2019-05-26T11:45:42.934Z,25.25
2019-05-26T11:48:11.366Z,25.45
2019-05-26T11:50:39.820Z,24.80
2019-05-26T11:53:08.244Z,25.97
2019-05-26T11:55:36.705Z,25.02
2019-05-26T11:58:05.144Z,23.50
2019-05-26T12:00:33.602Z,22.77
2019-05-26T12:03:05.471Z,20.30
2019-05-26T12:05:34.425Z,20.70
2019-05-26T12:08:02.800Z,19.42
2019-05-26T12:10:31.660Z,19.37
2019-05-26T12:13:00.127Z,19.35
2019-05-26T12:15:29.278Z,19.70
2019-05-26T12:17:57.717Z,18.50
2019-05-26T12:20:26.163Z,17.82
2019-05-26T12:22:54.600Z,17.73
2019-05-26T12:25:23.021Z,17.52
2019-05-26T12:27:51.636Z,19.27
2019-05-26T12:30:20.131Z,17.55
2019-05-26T12:32:48.584Z,16.65
2019-05-26T12:35:17.540Z,16.35
2019-05-26T12:37:48.312Z,17.27
2019-05-26T12:40:16.880Z,15.55
2019-05-26T12:42:45.313Z,15.78
2019-05-26T12:45:14.597Z,15.15
2019-05-26T12:47:46.499Z,15.73
2019-05-26T12:50:16.138Z,15.68
2019-05-26T12:52:44.562Z,15.85
2019-05-26T12:55:13.144Z,14.93
2019-05-26T12:57:41.593Z,14.30
2019-05-26T13:00:11.357Z,14.85
2019-05-26T13:02:39.801Z,13.70
2019-05-26T13:05:09.171Z,13.50
2019-05-26T13:10:09.744Z,13.93
2019-05-26T13:12:38.252Z,13.62
2019-05-26T13:15:13.322Z,13.75
2019-05-26T13:17:41.823Z,14.23
2019-05-26T13:20:11.516Z,12.93
2019-05-26T13:25:10.203Z,13.70
2019-05-26T13:27:38.611Z,12.80
2019-05-26T13:30:21.632Z,13.15
2019-05-26T13:32:50.101Z,14.33
2019-05-26T13:35:19.486Z,12.93
2019-05-26T13:37:47.943Z,12.57
2019-05-26T13:40:16.527Z,11.88
2019-05-26T13:42:44.966Z,11.88
2019-05-26T13:45:22.580Z,11.40
2019-05-26T13:47:44.889Z,12.28
2019-05-26T13:50:15.196Z,24.15
2019-05-26T13:52:43.631Z,11.57
2019-05-26T13:55:13.113Z,11.40
2019-05-26T13:57:41.563Z,11.48
2019-05-26T14:00:12.439Z,10.88
2019-05-26T14:02:40.857Z,12.00
2019-05-26T14:05:09.878Z,11.70
2019-05-26T14:07:38.461Z,10.40
2019-05-26T14:10:07.745Z,9.53
2019-05-26T14:12:36.186Z,10.07
2019-05-26T14:15:07.571Z,10.30
2019-05-26T14:17:36.088Z,9.78
2019-05-26T14:20:09.217Z,9.95
2019-05-26T14:22:37.633Z,9.43
2019-05-26T14:25:09.049Z,9.05
2019-05-26T14:27:37.510Z,8.53
2019-05-26T14:30:07.567Z,8.28
2019-05-26T14:32:35.995Z,8.98
2019-05-26T14:35:06.493Z,8.70
2019-05-26T14:37:34.915Z,8.95
2019-05-26T14:40:05.030Z,8.75
2019-05-26T14:45:03.881Z,8.93
2019-05-26T14:47:31.263Z,8.80
2019-05-26T14:49:59.711Z,8.88
2019-05-26T14:52:28.157Z,8.75
2019-05-26T14:54:56.603Z,8.58
2019-05-26T14:57:25.046Z,8.90
2019-05-26T14:59:53.463Z,8.10
2019-05-26T15:02:21.913Z,8.48
2019-05-26T15:04:50.351Z,7.90
2019-05-26T15:07:18.793Z,7.83
2019-05-26T15:09:47.233Z,7.37
2019-05-26T15:12:15.675Z,8.28
2019-05-26T15:14:44.097Z,7.70
2019-05-26T15:17:12.536Z,8.68
2019-05-26T15:19:40.963Z,8.25
2019-05-26T15:22:09.460Z,8.90
2019-05-26T15:24:37.894Z,9.60
2019-05-26T15:27:06.620Z,9.63
2019-05-26T15:29:35.030Z,8.63
2019-05-26T15:32:03.477Z,7.70
2019-05-26T15:34:31.976Z,8.98
2019-05-26T15:37:00.403Z,8.00
2019-05-26T15:39:28.840Z,9.25
2019-05-26T15:41:57.387Z,9.13
2019-05-26T15:44:25.943Z,9.85
2019-05-26T15:46:54.378Z,9.05
2019-05-26T15:49:23.674Z,9.10
2019-05-26T15:51:52.208Z,8.98
2019-05-26T15:54:20.633Z,8.73
2019-05-26T15:56:49.066Z,9.13
2019-05-26T15:59:17.485Z,9.08
2019-05-26T16:01:47.404Z,9.18
2019-05-26T16:04:15.839Z,9.58
2019-05-26T16:06:44.296Z,8.98
2019-05-26T16:09:12.717Z,9.65
2019-05-26T16:11:43.454Z,9.83
2019-05-26T16:16:41.546Z,10.18
2019-05-26T16:21:36.739Z,9.37
2019-05-26T16:24:05.380Z,9.50
2019-05-26T16:26:33.803Z,8.60
2019-05-26T16:29:02.243Z,10.40
2019-05-26T16:31:30.795Z,9.53
2019-05-26T16:33:59.316Z,8.80
2019-05-26T16:36:27.855Z,9.70
2019-05-26T16:38:56.412Z,8.80
2019-05-26T16:41:24.840Z,9.90
2019-05-26T16:43:53.331Z,9.80
2019-05-26T16:46:21.783Z,9.93
2019-05-26T16:48:54.049Z,10.75
2019-05-26T16:51:20.388Z,12.40
2019-05-26T16:53:48.809Z,11.28
2019-05-26T16:56:17.253Z,10.75
2019-05-26T16:58:45.696Z,11.48
2019-05-26T17:01:14.171Z,11.03
2019-05-26T17:03:42.593Z,11.80
2019-05-26T17:06:11.041Z,11.73
2019-05-26T17:08:39.477Z,11.48
2019-05-26T17:11:07.945Z,11.73
2019-05-26T17:13:36.369Z,13.65
2019-05-26T17:16:04.816Z,13.58
2019-05-26T17:18:33.260Z,13.58
2019-05-26T17:21:01.749Z,14.18
2019-05-26T17:23:30.242Z,13.53
2019-05-26T17:25:58.687Z,14.65
2019-05-26T17:28:27.118Z,13.93
2019-05-26T17:30:55.539Z,14.55
2019-05-26T17:33:23.967Z,14.75
2019-05-26T17:35:52.401Z,15.13
2019-05-26T17:38:20.845Z,15.85
2019-05-26T17:40:49.399Z,15.68
2019-05-26T17:43:17.861Z,14.73
2019-05-26T17:45:46.954Z,16.80
2019-05-26T17:48:15.387Z,18.07
2019-05-26T17:50:43.940Z,16.05
2019-05-26T17:53:12.379Z,16.67
2019-05-26T17:55:40.820Z,16.75
2019-05-26T17:58:09.289Z,16.95
2019-05-26T18:00:37.733Z,17.45
2019-05-26T18:03:06.163Z,18.87
2019-05-26T18:05:35.384Z,17.82
2019-05-26T18:08:04.343Z,18.27
2019-05-26T18:10:32.770Z,18.82
2019-05-26T18:13:01.241Z,17.67
2019-05-26T18:15:29.736Z,17.05
2019-05-26T18:17:58.176Z,16.52
2019-05-26T18:20:26.607Z,16.10
2019-05-26T18:22:55.112Z,16.90
2019-05-26T18:25:23.556Z,15.20
2019-05-26T18:27:52.025Z,14.03
2019-05-26T18:30:20.453Z,13.20
2019-05-26T18:32:49.287Z,12.07
2019-05-26T18:35:17.802Z,10.90
2019-05-26T18:37:46.173Z,10.30
2019-05-26T18:40:15.344Z,11.50
2019-05-26T18:42:43.810Z,11.57
2019-05-26T18:45:13.057Z,13.90
2019-05-26T18:47:41.529Z,12.30
2019-05-26T18:50:10.201Z,11.38
2019-05-26T18:52:38.642Z,10.43
2019-05-26T18:55:08.323Z,9.30
2019-05-26T18:57:36.758Z,9.08
2019-05-26T19:00:09.551Z,8.90
2019-05-26T19:02:37.970Z,8.35
2019-05-26T19:05:06.825Z,8.05
2019-05-26T19:07:35.265Z,8.85
2019-05-26T19:10:04.843Z,8.08
2019-05-26T19:12:33.281Z,8.05
2019-05-26T19:15:01.691Z,8.90
2019-05-26T19:17:30.120Z,7.95
2019-05-26T19:20:12.856Z,8.05
2019-05-26T19:22:28.705Z,8.00
2019-05-26T19:24:57.146Z,7.55
2019-05-26T19:27:25.609Z,7.40
2019-05-26T19:29:54.060Z,7.30
2019-05-26T19:32:22.490Z,6.97
2019-05-26T19:34:50.997Z,7.78
2019-05-26T19:37:19.442Z,6.90
2019-05-26T19:39:47.872Z,7.45
2019-05-26T19:42:16.339Z,7.87
2019-05-26T19:44:44.811Z,7.70
2019-05-26T19:47:13.480Z,8.35
2019-05-26T19:50:14.263Z,7.80
2019-05-26T19:52:41.746Z,7.97
2019-05-26T19:55:11.011Z,7.72
2019-05-26T19:57:39.476Z,7.90
2019-05-26T20:00:14.044Z,7.83
2019-05-26T20:02:42.477Z,7.87
2019-05-26T20:05:11.745Z,7.83
2019-05-26T20:07:40.270Z,8.23
2019-05-26T20:10:10.654Z,8.35
2019-05-26T20:12:39.083Z,7.58
2019-05-26T20:15:09.456Z,7.70
2019-05-26T20:20:09.111Z,8.58
2019-05-26T20:22:37.563Z,8.85
2019-05-26T20:25:08.123Z,9.55
2019-05-26T20:27:36.566Z,9.55
2019-05-26T20:30:07.745Z,9.13
2019-05-26T20:32:36.246Z,10.05
2019-05-26T20:35:09.514Z,9.68
2019-05-26T20:37:37.939Z,9.73
2019-05-26T20:40:07.815Z,10.72
2019-05-26T20:42:36.244Z,9.75
2019-05-26T20:45:07.323Z,9.93
2019-05-26T20:47:35.753Z,9.98
2019-05-26T20:50:08.618Z,10.72
2019-05-26T20:52:37.077Z,10.85
2019-05-26T20:55:09.691Z,10.68
2019-05-26T20:57:38.139Z,12.13
2019-05-26T21:00:09.594Z,11.43
2019-05-26T21:02:38.698Z,12.63
2019-05-26T21:05:07.775Z,12.80
2019-05-26T21:07:36.230Z,12.50
2019-05-26T21:10:06.430Z,13.08
2019-05-26T21:15:02.529Z,13.72
2019-05-26T21:17:30.932Z,14.75
2019-05-26T21:19:59.356Z,14.53
2019-05-26T21:22:27.791Z,14.05
2019-05-26T21:24:56.216Z,14.83
2019-05-26T21:27:24.682Z,14.03
2019-05-26T21:29:53.099Z,14.30
2019-05-26T21:32:21.573Z,14.03
2019-05-26T21:34:50.008Z,14.87
2019-05-26T21:37:18.439Z,14.80
2019-05-26T21:39:47.056Z,14.07
2019-05-26T21:42:16.166Z,15.13
2019-05-26T21:44:44.612Z,13.62
2019-05-26T21:47:13.050Z,14.07
2019-05-26T21:49:41.486Z,13.38
2019-05-26T21:52:09.908Z,12.82
2019-05-26T21:54:41.174Z,12.30
2019-05-26T21:57:08.559Z,10.90
2019-05-26T21:59:37.000Z,11.05
2019-05-26T22:02:05.870Z,10.95
2019-05-26T22:04:34.398Z,10.80
2019-05-26T22:07:02.826Z,9.70
2019-05-26T22:09:31.242Z,9.15
2019-05-26T22:11:59.743Z,8.88
2019-05-26T22:14:28.164Z,10.48
2019-05-26T22:16:56.613Z,10.00
2019-05-26T22:19:25.033Z,8.88
2019-05-26T22:21:53.467Z,10.08
2019-05-26T22:24:21.890Z,9.60
2019-05-26T22:26:50.327Z,9.23
2019-05-26T22:29:18.741Z,8.25
2019-05-26T22:31:47.189Z,9.47
2019-05-26T22:34:15.647Z,7.92
2019-05-26T22:36:44.068Z,8.63
2019-05-26T22:39:12.537Z,8.18
2019-05-26T22:41:40.957Z,7.75
2019-05-26T22:44:09.375Z,7.40
2019-05-26T22:46:37.813Z,8.27
2019-05-26T22:49:06.282Z,7.25
2019-05-26T22:51:34.676Z,6.60
2019-05-26T22:54:03.120Z,6.97
2019-05-26T22:56:31.550Z,6.60
2019-05-26T22:58:59.985Z,6.65
2019-05-26T23:01:28.417Z,6.83
2019-05-26T23:03:56.831Z,5.95
2019-05-26T23:06:25.256Z,6.60
2019-05-26T23:08:53.717Z,6.42
2019-05-26T23:11:22.166Z,6.50
2019-05-26T23:13:50.577Z,6.70
2019-05-26T23:16:19.231Z,6.78
2019-05-26T23:18:47.727Z,6.33
2019-05-26T23:21:16.141Z,5.87
2019-05-26T23:23:44.563Z,5.80
2019-05-26T23:26:12.981Z,5.67
2019-05-26T23:28:41.403Z,6.28
2019-05-26T23:31:09.824Z,5.85
2019-05-26T23:33:38.265Z,6.15
2019-05-26T23:36:06.699Z,5.92
2019-05-26T23:38:35.156Z,5.90
2019-05-26T23:41:03.578Z,5.92
2019-05-26T23:43:32.021Z,6.33
2019-05-26T23:46:00.444Z,5.90
2019-05-26T23:48:28.875Z,5.92
2019-05-26T23:50:57.297Z,5.80
2019-05-26T23:53:25.727Z,5.55
2019-05-26T23:55:54.170Z,6.10
2019-05-26T23:58:22.587Z,6.05
